createdAt,value
2018-02-17T00:02:04.485Z,19.57
2018-02-17T00:04:33.608Z,18.50
2018-02-17T00:07:02.729Z,20.10
2018-02-17T00:09:31.078Z,17.87
2018-02-17T00:12:00.215Z,18.60
2018-02-17T00:14:28.560Z,17.30
2018-02-17T00:16:57.693Z,18.27
2018-02-17T00:19:26.067Z,17.60
2018-02-17T00:21:54.409Z,20.20
2018-02-17T00:24:22.760Z,18.40
2018-02-17T00:26:51.109Z,19.00
2018-02-17T00:29:19.484Z,21.93
2018-02-17T00:31:47.807Z,19.70
2018-02-17T00:34:16.437Z,20.93
2018-02-17T00:36:44.780Z,18.97
2018-02-17T00:39:13.148Z,18.87
2018-02-17T00:41:41.507Z,19.27
2018-02-17T00:44:09.841Z,21.43
2018-02-17T00:46:38.961Z,19.10
2018-02-17T00:49:07.296Z,19.60
2018-02-17T00:51:35.663Z,18.03
2018-02-17T00:54:04.018Z,17.73
2018-02-17T00:56:32.393Z,19.77
2018-02-17T00:59:00.736Z,17.67
2018-02-17T01:01:29.137Z,18.27
2018-02-17T01:03:57.518Z,19.57
2018-02-17T01:06:25.869Z,19.73
2018-02-17T01:08:54.265Z,21.80
2018-02-17T01:11:22.620Z,19.07
2018-02-17T01:16:26.340Z,21.43
2018-02-17T01:18:55.445Z,21.57
2018-02-17T01:21:24.581Z,21.87
2018-02-17T01:23:52.966Z,22.43
2018-02-17T01:26:21.309Z,21.27
2018-02-17T01:28:49.893Z,23.53
2018-02-17T01:31:18.256Z,24.43
2018-02-17T01:33:46.588Z,22.60
2018-02-17T01:36:14.970Z,24.17
2018-02-17T01:38:43.345Z,22.10
2018-02-17T01:41:11.700Z,22.23
2018-02-17T01:43:40.073Z,23.83
2018-02-17T01:46:08.648Z,21.70
2018-02-17T01:48:37.032Z,19.80
2018-02-17T01:51:05.375Z,21.40
2018-02-17T01:53:33.708Z,20.63
2018-02-17T01:56:02.072Z,20.17
2018-02-17T01:58:30.461Z,20.00
2018-02-17T02:00:58.813Z,21.00
2018-02-17T02:03:27.157Z,20.30
2018-02-17T02:05:55.520Z,22.57
2018-02-17T02:08:23.893Z,23.00
2018-02-17T02:10:52.274Z,23.60
2018-02-17T02:13:20.765Z,23.03
2018-02-17T02:15:49.136Z,22.43
2018-02-17T02:18:17.473Z,21.13
2018-02-17T02:20:45.833Z,22.60
2018-02-17T02:23:14.926Z,21.77
2018-02-17T02:25:44.054Z,22.80
2018-02-17T02:28:12.413Z,21.43
2018-02-17T02:30:40.761Z,21.60
2018-02-17T02:33:09.911Z,21.83
2018-02-17T02:35:38.254Z,22.50
2018-02-17T02:38:07.670Z,21.53
2018-02-17T02:40:36.352Z,24.77
2018-02-17T02:43:04.729Z,23.23
2018-02-17T02:45:33.109Z,21.80
2018-02-17T02:48:01.440Z,25.00
2018-02-17T02:50:29.813Z,21.00
2018-02-17T02:52:59.670Z,20.50
2018-02-17T02:55:28.059Z,23.17
2018-02-17T02:57:56.395Z,24.83
2018-02-17T03:00:24.752Z,22.80
2018-02-17T03:02:53.122Z,23.50
2018-02-17T03:05:21.461Z,25.43
2018-02-17T03:07:49.809Z,24.93
2018-02-17T03:10:18.183Z,22.10
2018-02-17T03:12:46.509Z,22.50
2018-02-17T03:15:14.889Z,23.27
2018-02-17T03:17:43.265Z,21.77
2018-02-17T03:20:11.628Z,23.07
2018-02-17T03:22:40.012Z,24.50
2018-02-17T03:25:08.357Z,24.30
2018-02-17T03:27:37.501Z,23.83
2018-02-17T03:30:05.848Z,21.60
2018-02-17T03:32:34.955Z,22.40
2018-02-17T03:35:03.337Z,20.53
2018-02-17T03:37:31.677Z,22.20
2018-02-17T03:40:00.300Z,21.43
2018-02-17T03:42:28.637Z,21.40
2018-02-17T03:44:57.003Z,19.77
2018-02-17T03:47:25.363Z,21.73
2018-02-17T03:49:53.725Z,22.53
2018-02-17T03:52:22.082Z,22.57
2018-02-17T03:54:50.434Z,19.27
2018-02-17T03:57:19.581Z,20.43
2018-02-17T03:59:47.924Z,20.00
2018-02-17T04:02:22.419Z,20.43
2018-02-17T04:04:51.529Z,21.10
2018-02-17T04:07:20.650Z,19.03
2018-02-17T04:09:48.977Z,21.50
2018-02-17T04:12:17.377Z,21.90
2018-02-17T04:14:46.469Z,20.17
2018-02-17T04:17:15.609Z,22.70
2018-02-17T04:19:43.988Z,20.10
2018-02-17T04:22:12.325Z,21.20
2018-02-17T04:24:41.454Z,21.33
2018-02-17T04:27:09.800Z,18.30
2018-02-17T04:29:39.104Z,20.53
2018-02-17T04:32:08.220Z,21.50
2018-02-17T04:34:36.581Z,20.00
2018-02-17T04:37:05.696Z,21.53
2018-02-17T04:53:26.651Z,23.63
2018-02-17T04:56:11.485Z,23.03
2018-02-17T04:58:40.305Z,21.77
2018-02-17T05:01:24.498Z,22.63
2018-02-17T05:03:57.377Z,23.77
2018-02-17T05:06:29.561Z,24.93
2018-02-17T05:09:06.628Z,23.43
2018-02-17T05:11:34.982Z,23.47
2018-02-17T05:14:20.000Z,21.07
2018-02-17T05:16:54.113Z,21.60
2018-02-17T05:19:22.928Z,23.93
2018-02-17T05:21:51.285Z,24.27
2018-02-17T05:24:20.062Z,23.40
2018-02-17T05:26:48.405Z,23.43
2018-02-17T05:29:17.332Z,22.13
2018-02-17T05:31:45.660Z,21.57
2018-02-17T05:34:21.639Z,23.80
2018-02-17T05:36:52.505Z,25.07
2018-02-17T05:39:21.310Z,23.37
2018-02-17T05:55:09.256Z,23.60
2018-02-17T05:57:37.613Z,24.80
2018-02-17T06:00:06.722Z,25.00
2018-02-17T06:02:35.141Z,22.03
2018-02-17T06:05:03.477Z,25.03
2018-02-17T06:07:31.940Z,25.80
2018-02-17T06:10:00.302Z,24.17
2018-02-17T06:12:28.662Z,23.87
2018-02-17T06:14:57.001Z,26.27
2018-02-17T06:17:25.383Z,26.40
2018-02-17T06:19:53.729Z,24.27
2018-02-17T06:22:22.865Z,23.27
2018-02-17T06:24:51.197Z,22.60
2018-02-17T06:27:20.334Z,25.20
2018-02-17T06:29:48.704Z,25.83
2018-02-17T06:32:17.544Z,24.67
2018-02-17T06:34:45.880Z,25.67
2018-02-17T06:37:14.258Z,30.47
2018-02-17T06:39:42.592Z,26.07
2018-02-17T06:42:11.689Z,23.60
2018-02-17T06:44:40.037Z,23.60
2018-02-17T06:47:08.396Z,23.33
2018-02-17T06:49:36.740Z,25.53
2018-02-17T06:52:05.145Z,21.60
2018-02-17T06:54:33.469Z,20.33
2018-02-17T06:57:03.328Z,23.97
2018-02-17T06:59:31.700Z,22.00
2018-02-17T07:02:00.029Z,22.07
2018-02-17T07:04:29.170Z,22.83
2018-02-17T07:06:57.556Z,22.20
2018-02-17T07:09:26.173Z,22.40
2018-02-17T07:11:54.525Z,23.67
2018-02-17T07:14:22.961Z,22.80
2018-02-17T07:16:52.068Z,23.57
2018-02-17T07:19:20.402Z,22.83
2018-02-17T07:21:48.779Z,25.60
2018-02-17T07:24:17.116Z,26.00
2018-02-17T07:26:45.445Z,25.93
2018-02-17T07:29:14.607Z,24.27
2018-02-17T07:31:42.941Z,24.50
2018-02-17T07:34:12.079Z,25.30
2018-02-17T07:36:40.440Z,25.97
2018-02-17T07:39:08.798Z,23.70
2018-02-17T07:41:37.889Z,25.70
2018-02-17T07:44:07.014Z,25.90
2018-02-17T07:46:35.355Z,28.73
2018-02-17T07:49:04.778Z,27.07
2018-02-17T07:51:33.940Z,29.50
2018-02-17T07:54:02.272Z,25.37
2018-02-17T07:56:30.625Z,21.73
2018-02-17T07:58:58.968Z,25.17
2018-02-17T08:01:27.322Z,24.87
2018-02-17T08:03:55.656Z,26.40
2018-02-17T08:06:24.026Z,24.47
2018-02-17T08:08:52.356Z,24.73
2018-02-17T08:11:20.685Z,22.63
2018-02-17T08:13:49.038Z,26.63
2018-02-17T08:16:18.139Z,22.80
2018-02-17T08:18:47.269Z,26.07
2018-02-17T08:21:15.626Z,23.93
2018-02-17T08:23:44.733Z,25.57
2018-02-17T08:26:13.101Z,25.00
2018-02-17T08:28:42.201Z,24.10
2018-02-17T08:31:11.304Z,25.53
2018-02-17T08:33:39.669Z,25.53
2018-02-17T08:36:08.770Z,24.90
2018-02-17T08:38:37.125Z,26.40
2018-02-17T08:41:06.227Z,23.77
2018-02-17T08:43:35.365Z,24.40
2018-02-17T08:46:03.721Z,25.43
2018-02-17T08:48:32.074Z,24.17
2018-02-17T08:51:01.173Z,25.20
2018-02-17T08:53:30.292Z,28.37
2018-02-17T08:55:58.628Z,27.20
2018-02-17T08:58:27.026Z,23.57
2018-02-17T09:00:55.402Z,22.90
2018-02-17T09:03:23.745Z,26.00
2018-02-17T09:05:52.073Z,24.60
2018-02-17T09:08:20.457Z,24.30
2018-02-17T09:10:49.604Z,25.03
2018-02-17T09:13:17.972Z,23.23
2018-02-17T09:15:46.313Z,19.90
2018-02-17T09:18:14.669Z,24.30
2018-02-17T09:20:43.765Z,23.63
2018-02-17T09:23:12.884Z,23.67
2018-02-17T09:25:41.241Z,24.90
2018-02-17T09:28:09.829Z,25.97
2018-02-17T09:30:38.200Z,26.43
2018-02-17T09:33:07.314Z,25.37
2018-02-17T09:35:35.669Z,25.10
2018-02-17T09:38:04.039Z,24.37
2018-02-17T09:40:33.156Z,28.97
2018-02-17T09:43:01.492Z,26.40
2018-02-17T09:45:29.869Z,24.43
2018-02-17T09:47:58.448Z,26.10
2018-02-17T09:50:26.801Z,25.47
2018-02-17T09:52:55.122Z,22.60
2018-02-17T09:55:24.242Z,24.10
2018-02-17T09:57:52.584Z,24.30
2018-02-17T10:00:20.929Z,26.53
2018-02-17T10:02:49.241Z,23.77
2018-02-17T10:05:17.590Z,27.63
2018-02-17T10:07:45.933Z,24.77
2018-02-17T10:10:14.282Z,23.60
2018-02-17T10:12:43.421Z,25.67
2018-02-17T10:15:11.793Z,25.07
2018-02-17T10:17:40.130Z,25.83
2018-02-17T10:20:09.257Z,26.73
2018-02-17T10:22:37.621Z,26.93
2018-02-17T10:25:06.009Z,26.23
2018-02-17T10:27:34.345Z,28.03
2018-02-17T10:30:02.729Z,24.70
2018-02-17T10:32:31.066Z,25.17
2018-02-17T10:34:59.425Z,25.10
2018-02-17T10:37:27.791Z,24.27
2018-02-17T10:39:56.129Z,28.67
2018-02-17T10:42:24.482Z,24.60
2018-02-17T10:44:52.833Z,51.77
2018-02-17T10:47:21.205Z,106.37
2018-02-17T10:49:49.550Z,28.80
2018-02-17T10:52:17.901Z,59.27
2018-02-17T10:54:46.276Z,31.40
2018-02-17T10:57:14.666Z,33.90
2018-02-17T10:59:42.989Z,35.80
2018-02-17T11:02:11.359Z,26.90
2018-02-17T11:04:40.476Z,24.03
2018-02-17T11:07:08.831Z,28.33
2018-02-17T11:09:37.956Z,21.73
2018-02-17T11:12:06.300Z,22.33
2018-02-17T11:14:35.434Z,24.23
2018-02-17T11:17:03.808Z,18.67
2018-02-17T11:19:32.173Z,21.43
2018-02-17T11:22:00.567Z,22.47
2018-02-17T11:24:28.924Z,16.87
2018-02-17T11:26:57.275Z,19.83
2018-02-17T11:29:26.437Z,21.60
2018-02-17T11:31:54.776Z,18.40
2018-02-17T11:34:23.157Z,15.43
2018-02-17T11:36:51.485Z,18.17
2018-02-17T11:39:19.833Z,21.73
2018-02-17T11:41:48.165Z,19.13
2018-02-17T11:44:17.279Z,19.77
2018-02-17T11:46:45.621Z,19.83
2018-02-17T11:49:14.753Z,18.97
2018-02-17T11:51:43.132Z,17.63
2018-02-17T11:54:11.493Z,17.87
2018-02-17T11:56:40.610Z,18.03
2018-02-17T11:59:08.945Z,19.20
2018-02-17T12:01:37.293Z,16.37
2018-02-17T12:04:05.641Z,17.47
2018-02-17T12:06:34.016Z,18.37
2018-02-17T12:09:02.382Z,16.40
2018-02-17T12:11:30.760Z,18.27
2018-02-17T12:13:59.093Z,13.43
2018-02-17T12:16:27.458Z,13.90
2018-02-17T12:18:55.837Z,14.97
2018-02-17T12:21:24.170Z,12.60
2018-02-17T12:23:53.460Z,15.23
2018-02-17T12:26:21.953Z,14.40
2018-02-17T12:28:50.306Z,16.30
2018-02-17T12:31:18.653Z,12.90
2018-02-17T12:33:47.101Z,15.57
2018-02-17T12:36:15.819Z,12.37
2018-02-17T12:38:44.317Z,15.47
2018-02-17T12:41:13.442Z,14.93
2018-02-17T12:43:41.822Z,13.93
2018-02-17T12:46:11.081Z,14.30
2018-02-17T12:48:40.105Z,18.40
2018-02-17T12:51:09.192Z,17.20
2018-02-17T12:53:37.661Z,12.50
2018-02-17T12:56:06.270Z,17.30
2018-02-17T12:58:35.409Z,16.27
2018-02-17T13:01:03.769Z,15.63
2018-02-17T13:03:32.168Z,14.30
2018-02-17T13:06:00.529Z,12.43
2018-02-17T13:08:29.012Z,11.50
2018-02-17T13:10:58.376Z,10.63
2018-02-17T13:13:27.687Z,12.00
2018-02-17T13:15:57.105Z,10.43
2018-02-17T13:18:25.769Z,11.23
2018-02-17T13:20:55.101Z,11.63
2018-02-17T13:23:23.616Z,13.10
2018-02-17T13:25:52.671Z,12.57
2018-02-17T13:28:26.814Z,10.70
2018-02-17T13:30:55.508Z,10.27
2018-02-17T13:33:25.792Z,11.73
2018-02-17T13:35:54.137Z,11.17
2018-02-17T13:38:23.560Z,10.70
2018-02-17T13:40:51.945Z,12.20
2018-02-17T13:43:20.298Z,11.53
2018-02-17T13:45:49.390Z,13.43
2018-02-17T13:48:18.510Z,12.37
2018-02-17T13:50:46.864Z,12.03
2018-02-17T13:53:15.987Z,12.33
2018-02-17T13:55:44.301Z,10.30
2018-02-17T13:58:12.688Z,14.13
2018-02-17T14:00:41.026Z,10.00
2018-02-17T14:03:09.364Z,11.90
2018-02-17T14:05:38.566Z,10.97
2018-02-17T14:08:06.921Z,10.73
2018-02-17T14:10:36.069Z,11.83
2018-02-17T14:13:04.401Z,10.53
2018-02-17T14:15:33.531Z,11.07
2018-02-17T14:18:02.610Z,12.43
2018-02-17T14:20:31.733Z,10.20
2018-02-17T14:23:00.066Z,10.80
2018-02-17T14:25:28.413Z,11.87
2018-02-17T14:27:56.749Z,10.23
2018-02-17T14:30:25.094Z,13.60
2018-02-17T14:32:54.210Z,11.30
2018-02-17T14:35:22.573Z,13.87
2018-02-17T14:37:51.698Z,10.57
2018-02-17T14:40:20.076Z,13.57
2018-02-17T14:42:48.441Z,11.03
2018-02-17T14:45:16.761Z,9.50
2018-02-17T14:47:45.137Z,9.27
2018-02-17T14:50:13.465Z,10.47
2018-02-17T14:52:41.832Z,12.20
2018-02-17T14:55:10.153Z,14.40
2018-02-17T14:57:38.505Z,12.37
2018-02-17T15:00:06.884Z,10.60
2018-02-17T15:02:35.260Z,14.50
2018-02-17T15:05:04.405Z,12.87
2018-02-17T15:07:32.732Z,12.13
2018-02-17T15:10:01.867Z,12.87
2018-02-17T15:12:30.230Z,12.00
2018-02-17T15:14:58.613Z,14.20
2018-02-17T15:17:26.956Z,11.37
2018-02-17T15:19:56.112Z,8.17
2018-02-17T15:22:24.441Z,11.23
2018-02-17T15:24:52.792Z,9.33
2018-02-17T15:27:21.933Z,13.70
2018-02-17T15:29:50.265Z,13.20
2018-02-17T15:32:22.494Z,13.20
2018-02-17T15:34:50.842Z,11.33
2018-02-17T15:37:19.625Z,9.80
2018-02-17T15:39:47.985Z,11.07
2018-02-17T15:42:17.105Z,10.87
2018-02-17T15:44:45.455Z,9.77
2018-02-17T15:47:14.577Z,9.73
2018-02-17T15:49:42.917Z,10.20
2018-02-17T15:52:12.042Z,9.20
2018-02-17T15:54:41.444Z,10.00
2018-02-17T15:57:09.788Z,11.23
2018-02-17T15:59:38.965Z,9.43
2018-02-17T16:02:07.304Z,11.53
2018-02-17T16:04:35.675Z,10.40
2018-02-17T16:07:04.005Z,11.70
2018-02-17T16:09:32.364Z,9.50
2018-02-17T16:12:00.698Z,12.60
2018-02-17T16:14:29.821Z,10.43
2018-02-17T16:16:58.266Z,10.37
2018-02-17T16:19:26.662Z,12.17
2018-02-17T16:21:55.521Z,11.70
2018-02-17T16:24:24.005Z,9.30
2018-02-17T16:26:52.391Z,10.30
2018-02-17T16:29:21.588Z,11.23
2018-02-17T16:31:50.721Z,13.23
2018-02-17T16:34:19.105Z,14.43
2018-02-17T16:36:47.469Z,14.23
2018-02-17T16:39:15.815Z,10.60
2018-02-17T16:41:44.196Z,12.60
2018-02-17T16:44:13.309Z,13.27
2018-02-17T16:46:41.770Z,12.27
2018-02-17T16:49:10.128Z,12.10
2018-02-17T16:51:39.581Z,13.20
2018-02-17T16:54:07.933Z,11.73
2018-02-17T16:56:37.462Z,11.77
2018-02-17T16:59:05.801Z,11.00
2018-02-17T17:01:34.119Z,13.80
2018-02-17T17:04:02.513Z,12.50
2018-02-17T17:06:30.848Z,13.00
2018-02-17T17:08:59.972Z,13.60
2018-02-17T17:11:28.357Z,12.80
2018-02-17T17:13:56.725Z,13.70
2018-02-17T17:16:25.073Z,13.97
2018-02-17T17:18:54.222Z,13.67
2018-02-17T17:21:22.553Z,12.40
2018-02-17T17:23:50.925Z,12.33
2018-02-17T17:26:20.029Z,11.50
2018-02-17T17:28:48.409Z,13.17
2018-02-17T17:31:16.753Z,15.53
2018-02-17T17:33:45.118Z,14.00
2018-02-17T17:36:13.436Z,13.07
2018-02-17T17:38:41.772Z,13.37
2018-02-17T17:41:10.193Z,15.83
2018-02-17T17:43:38.521Z,14.87
2018-02-17T17:46:07.132Z,13.70
2018-02-17T17:48:35.806Z,11.27
2018-02-17T17:51:04.188Z,11.47
2018-02-17T17:53:32.524Z,10.70
2018-02-17T17:56:00.873Z,10.50
2018-02-17T17:58:29.993Z,12.40
2018-02-17T18:00:58.336Z,12.27
2018-02-17T18:03:27.957Z,14.27
2018-02-17T18:05:57.045Z,12.03
2018-02-17T18:08:26.181Z,14.10
2018-02-17T18:10:54.521Z,13.67
2018-02-17T18:13:23.658Z,15.27
2018-02-17T18:15:52.044Z,15.33
2018-02-17T18:18:20.380Z,13.43
2018-02-17T18:20:48.730Z,13.27
2018-02-17T18:23:17.860Z,15.80
2018-02-17T18:25:46.186Z,15.00
2018-02-17T18:28:14.592Z,13.20
2018-02-17T18:30:43.685Z,15.00
2018-02-17T18:33:12.794Z,17.60
2018-02-17T18:35:41.149Z,15.77
2018-02-17T18:38:10.261Z,14.53
2018-02-17T18:40:38.905Z,16.17
2018-02-17T18:43:07.242Z,17.00
2018-02-17T18:45:35.730Z,15.20
2018-02-17T18:48:04.054Z,16.40
2018-02-17T18:50:32.478Z,12.93
2018-02-17T18:53:00.832Z,14.30
2018-02-17T18:55:29.418Z,12.90
2018-02-17T18:57:58.237Z,16.00
2018-02-17T19:00:27.017Z,12.70
2018-02-17T19:02:55.377Z,12.17
2018-02-17T19:05:23.705Z,13.63
2018-02-17T19:07:52.067Z,14.40
2018-02-17T19:10:21.313Z,12.60
2018-02-17T19:12:50.445Z,10.73
2018-02-17T19:15:18.785Z,12.10
2018-02-17T19:17:48.013Z,11.23
2018-02-17T19:20:16.392Z,10.17
2018-02-17T19:22:44.770Z,10.00
2018-02-17T19:25:13.125Z,10.33
2018-02-17T19:27:41.470Z,10.57
2018-02-17T19:30:09.816Z,14.63
2018-02-17T19:32:38.170Z,11.07
2018-02-17T19:35:06.529Z,9.90
2018-02-17T19:37:34.884Z,12.23
2018-02-17T19:40:04.337Z,12.43
2018-02-17T19:42:32.653Z,13.07
2018-02-17T19:45:00.984Z,9.70
2018-02-17T19:47:29.365Z,10.90
2018-02-17T19:49:57.721Z,11.97
2018-02-17T19:52:26.159Z,10.63
2018-02-17T19:54:54.573Z,10.50
2018-02-17T19:57:23.673Z,11.30
2018-02-17T19:59:52.798Z,12.00
2018-02-17T20:02:21.134Z,13.20
2018-02-17T20:04:50.273Z,10.37
2018-02-17T20:07:18.604Z,12.60
2018-02-17T20:09:46.961Z,12.27
2018-02-17T20:12:15.280Z,11.87
2018-02-17T20:14:43.885Z,8.93
2018-02-17T20:17:12.297Z,10.70
2018-02-17T20:19:40.629Z,12.03
2018-02-17T20:22:09.000Z,11.97
2018-02-17T20:24:38.105Z,10.87
2018-02-17T20:27:06.448Z,11.00
2018-02-17T20:29:34.758Z,9.43
2018-02-17T20:32:03.104Z,13.23
2018-02-17T20:34:32.197Z,11.63
2018-02-17T20:37:00.645Z,11.10
2018-02-17T20:39:28.984Z,11.97
2018-02-17T20:41:57.368Z,11.87
2018-02-17T20:44:25.711Z,12.10
2018-02-17T20:46:54.113Z,11.77
2018-02-17T20:49:22.457Z,11.50
2018-02-17T20:51:50.824Z,12.47
2018-02-17T20:54:19.249Z,14.17
2018-02-17T20:56:47.573Z,13.60
2018-02-17T20:59:15.929Z,16.40
2018-02-17T21:01:44.300Z,11.70
2018-02-17T21:04:12.824Z,10.53
2018-02-17T21:06:41.162Z,12.10
2018-02-17T21:09:09.533Z,12.80
2018-02-17T21:11:37.924Z,12.17
2018-02-17T21:14:06.605Z,11.10
2018-02-17T21:16:34.932Z,12.47
2018-02-17T21:19:03.289Z,12.43
2018-02-17T21:21:31.622Z,10.37
2018-02-17T21:24:00.005Z,12.33
2018-02-17T21:26:28.391Z,14.13
2018-02-17T21:28:56.783Z,11.60
2018-02-17T21:31:25.136Z,13.73
2018-02-17T21:33:53.470Z,13.20
2018-02-17T21:36:21.838Z,13.87
2018-02-17T21:38:50.179Z,12.33
2018-02-17T21:41:18.541Z,13.47
2018-02-17T21:43:46.883Z,10.60
2018-02-17T21:46:16.019Z,12.30
2018-02-17T21:48:44.378Z,10.90
2018-02-17T21:51:12.913Z,9.63
2018-02-17T21:53:41.266Z,10.30
2018-02-17T21:56:09.657Z,12.50
2018-02-17T21:58:38.041Z,11.13
2018-02-17T22:01:06.375Z,11.63
2018-02-17T22:03:34.759Z,10.90
2018-02-17T22:06:03.109Z,12.23
2018-02-17T22:08:32.257Z,13.60
2018-02-17T22:11:00.581Z,13.53
2018-02-17T22:13:28.962Z,13.00
2018-02-17T22:15:57.321Z,14.13
2018-02-17T22:18:26.465Z,12.73
2018-02-17T22:20:54.806Z,14.63
2018-02-17T22:23:23.192Z,13.63
2018-02-17T22:25:52.289Z,15.43
2018-02-17T22:28:21.397Z,14.20
2018-02-17T22:30:49.757Z,16.97
2018-02-17T22:33:18.182Z,15.20
2018-02-17T22:35:46.646Z,13.90
2018-02-17T22:38:14.989Z,16.70
2018-02-17T22:40:44.121Z,13.90
2018-02-17T22:43:12.453Z,17.20
2018-02-17T22:45:41.593Z,15.53
2018-02-17T22:48:09.909Z,13.73
2018-02-17T22:50:38.252Z,15.13
2018-02-17T22:53:06.692Z,14.23
2018-02-17T22:55:35.077Z,15.83
2018-02-17T22:58:04.180Z,13.40
2018-02-17T23:00:32.553Z,12.17
2018-02-17T23:03:00.917Z,12.27
2018-02-17T23:05:30.065Z,15.90
2018-02-17T23:07:58.401Z,11.67
2018-02-17T23:10:27.498Z,14.63
2018-02-17T23:12:56.645Z,16.73
2018-02-17T23:15:24.981Z,14.07
2018-02-17T23:17:53.370Z,14.67
2018-02-17T23:20:21.730Z,14.03
2018-02-17T23:22:50.860Z,15.40
2018-02-17T23:25:19.193Z,14.67
2018-02-17T23:27:48.421Z,12.20
2018-02-17T23:30:16.874Z,15.17
2018-02-17T23:32:45.262Z,13.37
2018-02-17T23:35:13.597Z,13.67
2018-02-17T23:37:41.992Z,13.30
2018-02-17T23:40:10.333Z,14.27
2018-02-17T23:42:38.661Z,15.63
2018-02-17T23:45:07.789Z,18.40
2018-02-17T23:47:36.865Z,18.70
2018-02-17T23:50:05.229Z,16.90
2018-02-17T23:52:33.592Z,19.27
2018-02-17T23:55:02.752Z,16.50
2018-02-17T23:57:31.089Z,17.50
